Skip Navigation Links
NOAA logo - Click to go to the NOAA homepage
NOAA's National Weather Service
Alaska Aviation Weather Unit
  NWS logo - Click to go to the NWS homepage
Left Navbar Graphic     03 AKDT = 11 GMT

   
NOAA is celebrating 200 years of science, service, and stewardship. Visit the NOAA 200th celebration Web site to learn more.
USA.gov is the U.S. Government's official Web portal to all Federal, state and local government Web resources and services.
Facebook
NWS on Facebook

Important Change Regarding the AAWU Web Presence

 

Over the last several months, the AAWU has been working to navigate its webpages to a nationally supported server. Security, as well as other needs, have necessitated the change.  We have been given an extension for the site changeover while we diligently work at addressing feedback received. As of July 14, 2017, aawu.arh.noaa.gov will be discontinued. The new AAWU web address is weather.gov/aawu. It is now live and will run in-parallel with the old site until it is discontinued on July 14, 2017. Please continue to send any feedback or questions regarding the new webpages to nws.ar.aawu.webauthors@noaa.gov.  Thank you for your patience during this time of transition.
AAWU Home :: Display TAF Add Bookmark
METAR PAGL 230556Z AUTO 34008KT 10SM -RA OVC037 08/04 A2979 RMK AO2
     RAB55 SLP084 P0000 60000 T00830039 10111 20083 58004=

METAR PAGL 230656Z AUTO 33007KT 10SM BKN037 BKN045 OVC055 08/04
 A2979 RMK AO2 RAE09B38E56 SLP084 P0000 T00830039=

METAR PAGL 230856Z AUTO 33007KT 10SM FEW039 07/03 A2977 RMK AO2
 SLP079 60000 T00670033 401110067 58005=

METAR PAGL 230956Z AUTO 32006KT 10SM FEW034 BKN075 06/04 A2977 RMK AO2
     SLP078 T00610039=

METAR PAGL 231056Z AUTO 36004KT 10SM FEW034 03/02 A2977 RMK AO2 SLP078
     T00330022=


NOAA's National Weather Service
Alaska Aviation Weather Unit
6930 Sand Lake Road
Anchorage, AK 99502-1845
Disclaimer
Credits
Glossary
Privacy Policy
About Us
Career Opportunities
Contact AAWU Internet Services Site last modified: April, 17th 2012